Time,TemperatureF,DewpointF,PressureIn,WindDirection,WindDirectionDegrees,WindSpeedMPH,WindSpeedGustMPH,Humidity,HourlyPrecipIn,Conditions,Clouds,dailyrainin,SoftwareType,DateUTC
2013-11-13 00:13:00,22.0,15.0,30.45,North,360,2.0,-999.0,74,-99.99,,,-99.99,,2013-11-13 05:13:00,
2013-11-13 00:23:00,23.0,16.0,30.45,NW,313,3.0,-999.0,74,-99.99,,,-99.99,,2013-11-13 05:23:00,
2013-11-13 00:53:00,23.0,16.0,30.45,WNW,300,3.0,-999.0,73,-99.99,,,-99.99,,2013-11-13 05:53:00,
2013-11-13 01:22:00,23.0,15.0,30.45,WNW,294,4.0,-999.0,72,-99.99,,,-99.99,,2013-11-13 06:22:00,
2013-11-13 01:42:00,23.0,15.0,30.45,WNW,297,6.0,-999.0,72,-99.99,,,-99.99,,2013-11-13 06:42:00,
2013-11-13 01:52:00,23.0,16.0,30.45,North,355,5.0,-999.0,74,-99.99,,,-99.99,,2013-11-13 06:52:00,
2013-11-13 02:22:00,23.0,16.0,30.46,NNW,338,6.0,-999.0,74,-99.99,,,-99.99,,2013-11-13 07:22:00,
2013-11-13 02:42:00,23.0,17.0,30.46,WNW,300,9.0,-999.0,76,-99.99,,,-99.99,,2013-11-13 07:42:00,
2013-11-13 02:52:00,23.0,16.0,30.45,WSW,257,9.0,-999.0,75,-99.99,,,-99.99,,2013-11-13 07:52:00,
2013-11-13 03:22:00,22.0,15.0,30.45,West,269,5.0,-999.0,75,-99.99,,,-99.99,,2013-11-13 08:22:00,
2013-11-13 03:42:00,22.0,15.0,30.45,North,9,6.0,-999.0,73,-99.99,,,-99.99,,2013-11-13 08:42:00,
2013-11-13 03:52:00,22.0,15.0,30.45,NNE,25,4.0,-999.0,73,-99.99,,,-99.99,,2013-11-13 08:52:00,
2013-11-13 04:11:00,22.0,15.0,30.45,NNW,336,8.0,-999.0,74,-99.99,,,-99.99,,2013-11-13 09:11:00,
2013-11-13 04:21:00,22.0,16.0,30.45,NNE,26,9.0,-999.0,76,-99.99,,,-99.99,,2013-11-13 09:21:00,
2013-11-13 04:43:00,22.0,16.0,30.46,NW,317,9.0,-999.0,76,-99.99,,,-99.99,,2013-11-13 09:43:00,
2013-11-13 04:52:00,22.0,16.0,30.47,WNW,297,7.0,-999.0,76,-99.99,,,-99.99,,2013-11-13 09:52:00,
2013-11-13 05:23:00,21.0,14.0,30.48,NNE,13,9.0,-999.0,75,-99.99,,,-99.99,,2013-11-13 10:23:00,
2013-11-13 05:42:00,21.0,14.0,30.49,NNW,328,8.0,-999.0,75,-99.99,,,-99.99,,2013-11-13 10:42:00,
2013-11-13 05:52:00,21.0,14.0,30.49,NNW,340,9.0,-999.0,74,-99.99,,,-99.99,,2013-11-13 10:52:00,
2013-11-13 06:22:00,20.0,13.0,30.49,NW,317,9.0,-999.0,75,-99.99,,,-99.99,,2013-11-13 11:22:00,
2013-11-13 06:42:00,20.0,14.0,30.49,North,355,6.0,-999.0,76,-99.99,,,-99.99,,2013-11-13 11:42:00,
2013-11-13 06:52:00,20.0,14.0,30.50,ENE,68,5.0,-999.0,76,-99.99,,,-99.99,,2013-11-13 11:52:00,
2013-11-13 07:22:00,20.0,14.0,30.52,NE,38,5.0,-999.0,76,-99.99,,,-99.99,,2013-11-13 12:22:00,
2013-11-13 07:42:00,20.0,14.0,30.52,WNW,287,6.0,-999.0,77,-99.99,,,-99.99,,2013-11-13 12:42:00,
2013-11-13 07:52:00,20.0,14.0,30.53,NW,325,5.0,-999.0,77,-99.99,,,-99.99,,2013-11-13 12:52:00,
2013-11-13 08:11:00,20.0,14.0,30.55,NW,315,6.0,-999.0,76,-99.99,,,-99.99,,2013-11-13 13:11:00,
2013-11-13 08:22:00,21.0,14.0,30.55,NW,307,9.0,-999.0,75,-99.99,,,-99.99,,2013-11-13 13:22:00,
2013-11-13 08:42:00,21.0,14.0,30.56,WNW,288,11.0,-999.0,75,-99.99,,,-99.99,,2013-11-13 13:42:00,
2013-11-13 08:52:00,22.0,15.0,30.55,WNW,288,8.0,-999.0,74,-99.99,,,-99.99,,2013-11-13 13:52:00,
2013-11-13 09:11:00,23.0,16.0,30.56,SSE,152,5.0,-999.0,73,-99.99,,,-99.99,,2013-11-13 14:11:00,
2013-11-13 09:22:00,23.0,15.0,30.57,NW,314,5.0,-999.0,71,-99.99,,,-99.99,,2013-11-13 14:22:00,
2013-11-13 09:42:00,24.0,15.0,30.57,WSW,258,5.0,-999.0,68,-99.99,,,-99.99,,2013-11-13 14:42:00,
2013-11-13 09:52:00,24.0,15.0,30.58,NW,318,10.0,-999.0,67,-99.99,,,-99.99,,2013-11-13 14:52:00,
2013-11-13 10:12:00,25.0,15.0,30.58,WNW,299,10.0,-999.0,66,-99.99,,,-99.99,,2013-11-13 15:12:00,
2013-11-13 10:22:00,25.0,15.0,30.58,NW,315,10.0,-999.0,65,-99.99,,,-99.99,,2013-11-13 15:22:00,
2013-11-13 10:43:00,26.0,15.0,30.59,NW,324,11.0,-999.0,63,-99.99,,,-99.99,,2013-11-13 15:43:00,
2013-11-13 10:53:00,26.0,14.0,30.60,WNW,296,10.0,-999.0,61,-99.99,,,-99.99,,2013-11-13 15:53:00,
2013-11-13 11:23:00,29.0,16.0,30.60,North,355,9.0,-999.0,57,-99.99,,,-99.99,,2013-11-13 16:23:00,
2013-11-13 11:43:00,29.0,15.0,30.59,WNW,298,9.0,-999.0,55,-99.99,,,-99.99,,2013-11-13 16:43:00,
2013-11-13 11:52:00,30.0,15.0,30.59,WNW,300,11.0,-999.0,53,-99.99,,,-99.99,,2013-11-13 16:52:00,
2013-11-13 12:23:00,32.0,15.0,30.58,NNW,330,5.0,-999.0,49,-99.99,,,-99.99,,2013-11-13 17:23:00,
2013-11-13 12:52:00,33.0,16.0,30.57,North,355,7.0,-999.0,49,-99.99,,,-99.99,,2013-11-13 17:52:00,
2013-11-13 13:23:00,35.0,17.0,30.55,NNW,331,8.0,-999.0,48,-99.99,,,-99.99,,2013-11-13 18:23:00,
2013-11-13 13:42:00,35.0,16.0,30.55,NNW,344,8.0,-999.0,46,-99.99,,,-99.99,,2013-11-13 18:42:00,
2013-11-13 13:52:00,36.0,18.0,30.54,NNW,338,9.0,-999.0,47,-99.99,,,-99.99,,2013-11-13 18:52:00,
2013-11-13 14:11:00,36.0,17.0,30.55,NNW,348,8.0,-999.0,46,-99.99,,,-99.99,,2013-11-13 19:11:00,
2013-11-13 14:21:00,37.0,18.0,30.54,WNW,298,6.0,-999.0,45,-99.99,,,-99.99,,2013-11-13 19:21:00,
2013-11-13 14:42:00,37.0,17.0,30.54,West,265,8.0,-999.0,44,-99.99,,,-99.99,,2013-11-13 19:42:00,
2013-11-13 14:52:00,37.0,17.0,30.54,NW,317,8.0,-999.0,43,-99.99,,,-99.99,,2013-11-13 19:52:00,
2013-11-13 15:22:00,38.0,19.0,30.54,NW,306,7.0,-999.0,45,-99.99,,,-99.99,,2013-11-13 20:22:00,
2013-11-13 15:42:00,38.0,18.0,30.54,NW,320,7.0,-999.0,43,-99.99,,,-99.99,,2013-11-13 20:42:00,
2013-11-13 15:52:00,37.0,17.0,30.54,NNW,342,8.0,-999.0,43,-99.99,,,-99.99,,2013-11-13 20:52:00,
2013-11-13 16:12:00,37.0,17.0,30.54,NNE,13,9.0,-999.0,44,-99.99,,,-99.99,,2013-11-13 21:12:00,
2013-11-13 16:22:00,36.0,17.0,30.54,NNW,333,8.0,-999.0,46,-99.99,,,-99.99,,2013-11-13 21:22:00,
2013-11-13 16:43:00,36.0,18.0,30.54,NW,312,9.0,-999.0,47,-99.99,,,-99.99,,2013-11-13 21:43:00,
2013-11-13 16:53:00,36.0,18.0,30.54,NW,317,8.0,-999.0,48,-99.99,,,-99.99,,2013-11-13 21:53:00,
2013-11-13 17:23:00,35.0,18.0,30.54,WNW,295,6.0,-999.0,49,-99.99,,,-99.99,,2013-11-13 22:23:00,
2013-11-13 17:42:00,33.0,17.0,30.54,NW,313,6.0,-999.0,52,-99.99,,,-99.99,,2013-11-13 22:42:00,
2013-11-13 17:53:00,32.0,18.0,30.54,NW,315,4.0,-999.0,55,-99.99,,,-99.99,,2013-11-13 22:53:00,
2013-11-13 18:22:00,31.0,18.0,30.55,NW,311,6.0,-999.0,58,-99.99,,,-99.99,,2013-11-13 23:22:00,
2013-11-13 18:43:00,31.0,18.0,30.54,NNW,342,5.0,-999.0,59,-99.99,,,-99.99,,2013-11-13 23:43:00,
2013-11-13 18:52:00,30.0,18.0,30.54,NNW,333,6.0,-999.0,60,-99.99,,,-99.99,,2013-11-13 23:52:00,
2013-11-13 19:11:00,31.0,19.0,30.53,West,277,4.0,-999.0,60,-99.99,,,-99.99,,2013-11-14 00:11:00,
2013-11-13 19:22:00,31.0,18.0,30.53,WNW,296,8.0,-999.0,57,-99.99,,,-99.99,,2013-11-14 00:22:00,
2013-11-13 19:42:00,31.0,16.0,30.53,NNW,343,5.0,-999.0,54,-99.99,,,-99.99,,2013-11-14 00:42:00,
2013-11-13 19:52:00,31.0,16.0,30.54,WNW,291,6.0,-999.0,54,-99.99,,,-99.99,,2013-11-14 00:52:00,
2013-11-13 20:11:00,30.0,16.0,30.54,West,279,3.0,-999.0,56,-99.99,,,-99.99,,2013-11-14 01:11:00,
2013-11-13 20:22:00,30.0,17.0,30.54,WNW,283,1.0,-999.0,58,-99.99,,,-99.99,,2013-11-14 01:22:00,
2013-11-13 20:42:00,30.0,17.0,30.53,WNW,297,3.0,-999.0,58,-99.99,,,-99.99,,2013-11-14 01:42:00,
2013-11-13 20:52:00,29.0,16.0,30.53,WNW,297,0.0,-999.0,58,-99.99,,,-99.99,,2013-11-14 01:52:00,
2013-11-13 21:22:00,28.0,16.0,30.54,WNW,297,0.0,-999.0,61,-99.99,,,-99.99,,2013-11-14 02:22:00,
2013-11-13 22:12:00,26.0,16.0,30.53,WNW,297,1.0,-999.0,65,-99.99,,,-99.99,,2013-11-14 03:12:00,
2013-11-13 22:21:00,25.0,15.0,30.53,WNW,297,0.0,-999.0,66,-99.99,,,-99.99,,2013-11-14 03:21:00,
2013-11-13 22:44:00,26.0,16.0,30.53,WNW,297,1.0,-999.0,64,-99.99,,,-99.99,,2013-11-14 03:44:00,
2013-11-13 22:54:00,26.0,16.0,30.52,WNW,298,1.0,-999.0,64,-99.99,,,-99.99,,2013-11-14 03:54:00,
2013-11-13 23:24:00,25.0,15.0,30.51,NW,306,0.0,-999.0,66,-99.99,,,-99.99,,2013-11-14 04:24:00,
2013-11-13 23:43:00,24.0,16.0,30.51,NW,305,0.0,-999.0,70,-99.99,,,-99.99,,2013-11-14 04:43:00,
2013-11-13 23:54:00,23.0,14.0,30.51,NW,305,0.0,-999.0,69,-99.99,,,-99.99,,2013-11-14 04:54:00,